Seward, NE

4:53 PM CDT on September 01, 2015 (GMT -0500)
Suhr Lichty Insurance Downtown | | Change Station
CLOSE
Current Station
Personal Weather Station
Location: Seward, NE
Elevation: 1493 ft
Nearby Weather Stations

Elev 1493 ft 40.91 °N, 97.10 °W | Updated 3 minutes ago

Partly Cloudy
Partly Cloudy
92.2 °F
Feels Like 96 °F
N
2.0
Wind Variable Wind from SSE
Gusts 12.0 mph

Today
High -- | Low -- °F
--% Chance of Precip.
Yesterday
High -- | Low -- °F
Precip. -- in
6:55 AM 8:01 PM
Waning Gibbous, 86% visible
Pressure 29.86 in
Visibility 9.0 miles
Clouds Clear
Heat Index 96 °F
Dew Point 67 °F
Humidity 44%
Rainfall 0.00 in
Snow Depth Not available.
UV 6 out of 12
Pollen 11.10 out of 12
Air Quality Not available.
Flu Activity Not available.
METAR KLNK 012054Z AUTO 18013G23KT 9SM CLR 32/19 A2990 RMK AO2 SLP112 T03220189 58010
Pressure 29.86 in
Visibility 9.0 miles
Clouds Clear
Heat Index 96 °F
Dew Point 67 °F
Humidity 44%
Rainfall 0.00 in
Snow Depth Not available.
UV 6 out of 12
Pollen 11.10 out of 12
Air Quality Not available.
Flu Activity Not available.
METAR KLNK 012054Z AUTO 18013G23KT 9SM CLR 32/19 A2990 RMK AO2 SLP112 T03220189 58010

10-Day Weather Forecast

×

Almanac

Astronomy

Sep. 01, 2015 Rise Set
Actual Time
Civil Twilight
Nautical Twilight
Astronomical Twilight
Moon
Length of Visible Light
Length of Day
Tomorrow will be .
, % of the Moon is Illuminated

Today's Extremes

State Highs State Lows

Community

WunderPhotos

Upload Photos

1,851,628 photos uploaded!

WunderBlogs® & News

Nearby

Air Quality

  Air Quality AQ Index Pollutant
Not available.

Snow Depth

Station Depth Elevation

Earthquake Activity

City Distance Mag. Time & Date
Minimum magnitude displayed is 2.5.

Coastal Water Temperatures

Place Temperature

Stations

Nearby Weather Stations

Station Location Temp. Windchill Dew Point Humidity Wind Precip. Elev Updated Type